sensor_id;sensor_type;location;lat;lon;timestamp;P1;durP1;ratioP1;P2;durP2;ratioP2
6356;SDS011;3211;53.452;-2.264;2023-05-07T00:02:36;13.20;;;9.33;;
6356;SDS011;3211;53.452;-2.264;2023-05-07T00:05:18;13.07;;;10.90;;
6356;SDS011;3211;53.452;-2.264;2023-05-07T00:08:00;14.03;;;9.90;;
6356;SDS011;3211;53.452;-2.264;2023-05-07T00:10:42;12.57;;;10.53;;
6356;SDS011;3211;53.452;-2.264;2023-05-07T00:13:26;11.10;;;9.27;;
6356;SDS011;3211;53.452;-2.264;2023-05-07T00:16:10;12.43;;;9.63;;
6356;SDS011;3211;53.452;-2.264;2023-05-07T00:18:52;13.23;;;10.40;;
6356;SDS011;3211;53.452;-2.264;2023-05-07T00:21:34;11.40;;;9.87;;
6356;SDS011;3211;53.452;-2.264;2023-05-07T00:24:16;14.20;;;10.97;;
6356;SDS011;3211;53.452;-2.264;2023-05-07T00:26:58;12.50;;;10.53;;
6356;SDS011;3211;53.452;-2.264;2023-05-07T00:29:42;12.57;;;10.70;;
6356;SDS011;3211;53.452;-2.264;2023-05-07T00:32:24;15.17;;;10.30;;
6356;SDS011;3211;53.452;-2.264;2023-05-07T00:35:06;13.90;;;10.37;;
6356;SDS011;3211;53.452;-2.264;2023-05-07T00:37:49;12.60;;;10.53;;
6356;SDS011;3211;53.452;-2.264;2023-05-07T00:40:31;15.23;;;12.00;;
6356;SDS011;3211;53.452;-2.264;2023-05-07T00:43:13;15.53;;;13.00;;
6356;SDS011;3211;53.452;-2.264;2023-05-07T00:45:56;18.10;;;13.90;;
6356;SDS011;3211;53.452;-2.264;2023-05-07T00:48:38;16.63;;;13.80;;
6356;SDS011;3211;53.452;-2.264;2023-05-07T00:51:20;19.70;;;13.00;;
6356;SDS011;3211;53.452;-2.264;2023-05-07T00:54:03;16.33;;;13.07;;
6356;SDS011;3211;53.452;-2.264;2023-05-07T00:56:45;16.37;;;13.17;;
6356;SDS011;3211;53.452;-2.264;2023-05-07T00:59:27;16.97;;;13.03;;
6356;SDS011;3211;53.452;-2.264;2023-05-07T01:02:10;18.33;;;14.47;;
6356;SDS011;3211;53.452;-2.264;2023-05-07T01:04:53;17.17;;;14.83;;
6356;SDS011;3211;53.452;-2.264;2023-05-07T01:07:36;15.70;;;13.87;;
6356;SDS011;3211;53.452;-2.264;2023-05-07T01:10:19;17.83;;;14.50;;
6356;SDS011;3211;53.452;-2.264;2023-05-07T01:13:01;22.40;;;15.97;;
6356;SDS011;3211;53.452;-2.264;2023-05-07T01:15:44;20.53;;;15.40;;
6356;SDS011;3211;53.452;-2.264;2023-05-07T01:18:27;17.97;;;14.70;;
6356;SDS011;3211;53.452;-2.264;2023-05-07T01:21:10;16.20;;;13.77;;
6356;SDS011;3211;53.452;-2.264;2023-05-07T01:23:54;18.53;;;14.30;;
6356;SDS011;3211;53.452;-2.264;2023-05-07T01:26:37;16.50;;;13.27;;
6356;SDS011;3211;53.452;-2.264;2023-05-07T01:29:20;16.47;;;13.80;;
6356;SDS011;3211;53.452;-2.264;2023-05-07T01:32:02;20.40;;;13.77;;
6356;SDS011;3211;53.452;-2.264;2023-05-07T01:34:44;18.73;;;14.10;;
6356;SDS011;3211;53.452;-2.264;2023-05-07T01:37:29;18.97;;;13.73;;
6356;SDS011;3211;53.452;-2.264;2023-05-07T01:40:13;16.27;;;13.87;;
6356;SDS011;3211;53.452;-2.264;2023-05-07T01:42:55;18.87;;;14.20;;
6356;SDS011;3211;53.452;-2.264;2023-05-07T01:45:38;15.67;;;12.73;;
6356;SDS011;3211;53.452;-2.264;2023-05-07T01:48:21;18.83;;;13.73;;
6356;SDS011;3211;53.452;-2.264;2023-05-07T01:51:04;13.67;;;12.10;;
6356;SDS011;3211;53.452;-2.264;2023-05-07T01:53:47;15.13;;;12.70;;
6356;SDS011;3211;53.452;-2.264;2023-05-07T01:56:32;16.07;;;12.47;;
6356;SDS011;3211;53.452;-2.264;2023-05-07T01:59:14;16.03;;;12.17;;
6356;SDS011;3211;53.452;-2.264;2023-05-07T02:01:56;14.80;;;12.33;;
6356;SDS011;3211;53.452;-2.264;2023-05-07T02:04:38;16.17;;;12.20;;
6356;SDS011;3211;53.452;-2.264;2023-05-07T02:07:20;22.33;;;14.17;;
6356;SDS011;3211;53.452;-2.264;2023-05-07T02:10:02;21.57;;;15.23;;
6356;SDS011;3211;53.452;-2.264;2023-05-07T02:12:46;20.67;;;16.07;;
6356;SDS011;3211;53.452;-2.264;2023-05-07T02:15:28;21.90;;;15.77;;
6356;SDS011;3211;53.452;-2.264;2023-05-07T02:18:10;19.30;;;16.43;;
6356;SDS011;3211;53.452;-2.264;2023-05-07T02:20:52;20.60;;;16.57;;
6356;SDS011;3211;53.452;-2.264;2023-05-07T02:23:34;19.30;;;16.27;;
6356;SDS011;3211;53.452;-2.264;2023-05-07T02:26:16;19.03;;;15.97;;
6356;SDS011;3211;53.452;-2.264;2023-05-07T02:29:00;22.10;;;16.23;;
6356;SDS011;3211;53.452;-2.264;2023-05-07T02:31:42;21.93;;;17.50;;
6356;SDS011;3211;53.452;-2.264;2023-05-07T02:34:24;24.23;;;16.57;;
6356;SDS011;3211;53.452;-2.264;2023-05-07T02:37:06;23.33;;;18.30;;
6356;SDS011;3211;53.452;-2.264;2023-05-07T02:39:48;28.37;;;18.90;;
6356;SDS011;3211;53.452;-2.264;2023-05-07T02:42:30;23.77;;;16.60;;
6356;SDS011;3211;53.452;-2.264;2023-05-07T02:45:13;21.60;;;17.63;;
6356;SDS011;3211;53.452;-2.264;2023-05-07T02:47:55;22.40;;;16.33;;
6356;SDS011;3211;53.452;-2.264;2023-05-07T02:50:37;21.27;;;17.20;;
6356;SDS011;3211;53.452;-2.264;2023-05-07T02:53:19;26.03;;;17.27;;
6356;SDS011;3211;53.452;-2.264;2023-05-07T02:56:01;19.57;;;15.37;;
6356;SDS011;3211;53.452;-2.264;2023-05-07T02:58:43;21.87;;;15.60;;
6356;SDS011;3211;53.452;-2.264;2023-05-07T03:01:27;20.90;;;15.93;;
6356;SDS011;3211;53.452;-2.264;2023-05-07T03:04:09;19.27;;;14.73;;
6356;SDS011;3211;53.452;-2.264;2023-05-07T03:06:51;20.87;;;15.27;;
6356;SDS011;3211;53.452;-2.264;2023-05-07T03:09:33;22.03;;;15.33;;
6356;SDS011;3211;53.452;-2.264;2023-05-07T03:12:15;18.50;;;14.07;;
6356;SDS011;3211;53.452;-2.264;2023-05-07T03:14:57;19.83;;;15.67;;
6356;SDS011;3211;53.452;-2.264;2023-05-07T03:17:40;20.57;;;14.70;;
6356;SDS011;3211;53.452;-2.264;2023-05-07T03:20:22;18.00;;;14.30;;
6356;SDS011;3211;53.452;-2.264;2023-05-07T03:23:05;17.23;;;14.13;;
6356;SDS011;3211;53.452;-2.264;2023-05-07T03:25:47;16.23;;;13.60;;
6356;SDS011;3211;53.452;-2.264;2023-05-07T03:28:29;16.47;;;13.67;;
6356;SDS011;3211;53.452;-2.264;2023-05-07T03:31:11;16.80;;;12.87;;
6356;SDS011;3211;53.452;-2.264;2023-05-07T03:33:55;14.73;;;13.10;;
6356;SDS011;3211;53.452;-2.264;2023-05-07T03:36:38;16.63;;;12.20;;
6356;SDS011;3211;53.452;-2.264;2023-05-07T03:39:20;16.17;;;12.13;;
6356;SDS011;3211;53.452;-2.264;2023-05-07T03:42:02;17.53;;;12.33;;
6356;SDS011;3211;53.452;-2.264;2023-05-07T03:44:49;14.10;;;11.53;;
6356;SDS011;3211;53.452;-2.264;2023-05-07T03:47:31;14.70;;;12.33;;
6356;SDS011;3211;53.452;-2.264;2023-05-07T03:50:15;14.33;;;10.93;;
6356;SDS011;3211;53.452;-2.264;2023-05-07T03:52:56;18.40;;;12.40;;
6356;SDS011;3211;53.452;-2.264;2023-05-07T03:55:39;13.60;;;11.23;;
6356;SDS011;3211;53.452;-2.264;2023-05-07T03:58:21;14.70;;;11.77;;
6356;SDS011;3211;53.452;-2.264;2023-05-07T04:01:03;15.93;;;12.13;;
6356;SDS011;3211;53.452;-2.264;2023-05-07T04:03:45;17.40;;;13.73;;
6356;SDS011;3211;53.452;-2.264;2023-05-07T04:06:28;14.07;;;12.33;;
6356;SDS011;3211;53.452;-2.264;2023-05-07T04:09:11;16.80;;;12.20;;
6356;SDS011;3211;53.452;-2.264;2023-05-07T04:11:53;14.40;;;12.90;;
6356;SDS011;3211;53.452;-2.264;2023-05-07T04:14:34;15.87;;;12.30;;
6356;SDS011;3211;53.452;-2.264;2023-05-07T04:17:16;14.20;;;12.67;;
6356;SDS011;3211;53.452;-2.264;2023-05-07T04:19:58;15.67;;;12.57;;
6356;SDS011;3211;53.452;-2.264;2023-05-07T04:22:42;15.43;;;13.00;;
6356;SDS011;3211;53.452;-2.264;2023-05-07T04:25:24;17.80;;;13.00;;
6356;SDS011;3211;53.452;-2.264;2023-05-07T04:28:06;14.40;;;12.57;;
6356;SDS011;3211;53.452;-2.264;2023-05-07T04:30:48;17.80;;;13.70;;
6356;SDS011;3211;53.452;-2.264;2023-05-07T04:33:31;14.97;;;13.20;;
6356;SDS011;3211;53.452;-2.264;2023-05-07T04:36:13;21.97;;;14.93;;
6356;SDS011;3211;53.452;-2.264;2023-05-07T04:38:56;17.73;;;13.90;;
6356;SDS011;3211;53.452;-2.264;2023-05-07T04:41:38;18.60;;;13.97;;
6356;SDS011;3211;53.452;-2.264;2023-05-07T04:44:20;18.60;;;13.63;;
6356;SDS011;3211;53.452;-2.264;2023-05-07T04:47:02;18.83;;;14.10;;
6356;SDS011;3211;53.452;-2.264;2023-05-07T04:49:44;18.43;;;13.90;;
6356;SDS011;3211;53.452;-2.264;2023-05-07T04:52:26;17.60;;;13.90;;
6356;SDS011;3211;53.452;-2.264;2023-05-07T04:55:10;19.50;;;15.73;;
6356;SDS011;3211;53.452;-2.264;2023-05-07T04:57:52;22.10;;;14.93;;
6356;SDS011;3211;53.452;-2.264;2023-05-07T05:00:34;20.93;;;15.93;;
6356;SDS011;3211;53.452;-2.264;2023-05-07T05:03:16;19.13;;;15.67;;
6356;SDS011;3211;53.452;-2.264;2023-05-07T05:05:58;19.03;;;14.20;;
6356;SDS011;3211;53.452;-2.264;2023-05-07T05:08:40;15.47;;;12.80;;
6356;SDS011;3211;53.452;-2.264;2023-05-07T05:11:24;20.60;;;14.27;;
6356;SDS011;3211;53.452;-2.264;2023-05-07T05:14:06;17.83;;;15.10;;
6356;SDS011;3211;53.452;-2.264;2023-05-07T05:16:48;23.43;;;16.27;;
6356;SDS011;3211;53.452;-2.264;2023-05-07T05:19:30;24.20;;;15.80;;
6356;SDS011;3211;53.452;-2.264;2023-05-07T05:22:11;23.90;;;14.67;;
6356;SDS011;3211;53.452;-2.264;2023-05-07T05:24:53;24.70;;;16.47;;
6356;SDS011;3211;53.452;-2.264;2023-05-07T05:27:37;22.97;;;16.93;;
6356;SDS011;3211;53.452;-2.264;2023-05-07T05:30:19;22.77;;;15.33;;
6356;SDS011;3211;53.452;-2.264;2023-05-07T05:33:01;25.43;;;16.30;;
6356;SDS011;3211;53.452;-2.264;2023-05-07T05:35:43;25.63;;;17.07;;
6356;SDS011;3211;53.452;-2.264;2023-05-07T05:38:25;26.30;;;16.50;;
6356;SDS011;3211;53.452;-2.264;2023-05-07T05:41:07;35.13;;;17.80;;
6356;SDS011;3211;53.452;-2.264;2023-05-07T05:43:50;29.50;;;17.30;;
6356;SDS011;3211;53.452;-2.264;2023-05-07T05:46:32;27.60;;;18.27;;
6356;SDS011;3211;53.452;-2.264;2023-05-07T05:49:14;29.63;;;16.30;;
6356;SDS011;3211;53.452;-2.264;2023-05-07T05:51:56;24.23;;;15.60;;
6356;SDS011;3211;53.452;-2.264;2023-05-07T05:54:38;23.33;;;16.50;;
6356;SDS011;3211;53.452;-2.264;2023-05-07T05:57:20;28.87;;;18.10;;
6356;SDS011;3211;53.452;-2.264;2023-05-07T06:00:04;28.17;;;17.40;;
6356;SDS011;3211;53.452;-2.264;2023-05-07T06:02:47;30.43;;;17.00;;
6356;SDS011;3211;53.452;-2.264;2023-05-07T06:05:29;27.83;;;16.90;;
6356;SDS011;3211;53.452;-2.264;2023-05-07T06:08:11;28.40;;;17.37;;
6356;SDS011;3211;53.452;-2.264;2023-05-07T06:10:54;29.13;;;16.60;;
6356;SDS011;3211;53.452;-2.264;2023-05-07T06:13:36;26.00;;;16.97;;
6356;SDS011;3211;53.452;-2.264;2023-05-07T06:16:19;28.40;;;16.87;;
6356;SDS011;3211;53.452;-2.264;2023-05-07T06:19:01;25.50;;;15.53;;
6356;SDS011;3211;53.452;-2.264;2023-05-07T06:21:43;35.80;;;16.03;;
6356;SDS011;3211;53.452;-2.264;2023-05-07T06:24:25;24.20;;;15.33;;
6356;SDS011;3211;53.452;-2.264;2023-05-07T06:27:07;21.37;;;13.80;;
6356;SDS011;3211;53.452;-2.264;2023-05-07T06:29:50;26.23;;;13.60;;
6356;SDS011;3211;53.452;-2.264;2023-05-07T06:32:33;21.93;;;13.43;;
6356;SDS011;3211;53.452;-2.264;2023-05-07T06:35:15;21.30;;;12.93;;
6356;SDS011;3211;53.452;-2.264;2023-05-07T06:37:57;18.57;;;11.17;;
6356;SDS011;3211;53.452;-2.264;2023-05-07T06:40:39;20.07;;;12.00;;
6356;SDS011;3211;53.452;-2.264;2023-05-07T06:43:21;17.40;;;10.87;;
6356;SDS011;3211;53.452;-2.264;2023-05-07T06:46:03;21.70;;;10.03;;
6356;SDS011;3211;53.452;-2.264;2023-05-07T06:48:46;18.43;;;10.70;;
6356;SDS011;3211;53.452;-2.264;2023-05-07T06:51:28;16.43;;;10.40;;
6356;SDS011;3211;53.452;-2.264;2023-05-07T06:54:10;16.97;;;9.50;;
6356;SDS011;3211;53.452;-2.264;2023-05-07T06:56:52;20.90;;;9.33;;
6356;SDS011;3211;53.452;-2.264;2023-05-07T06:59:34;18.00;;;9.70;;
6356;SDS011;3211;53.452;-2.264;2023-05-07T07:02:16;16.03;;;8.63;;
6356;SDS011;3211;53.452;-2.264;2023-05-07T07:04:59;18.57;;;8.60;;
6356;SDS011;3211;53.452;-2.264;2023-05-07T07:07:41;17.70;;;8.03;;
6356;SDS011;3211;53.452;-2.264;2023-05-07T07:10:23;16.27;;;7.40;;
6356;SDS011;3211;53.452;-2.264;2023-05-07T07:13:05;13.93;;;6.23;;
6356;SDS011;3211;53.452;-2.264;2023-05-07T07:15:55;12.53;;;5.47;;
6356;SDS011;3211;53.452;-2.264;2023-05-07T07:18:37;11.20;;;5.10;;
6356;SDS011;3211;53.452;-2.264;2023-05-07T07:21:19;11.70;;;4.93;;
6356;SDS011;3211;53.452;-2.264;2023-05-07T07:24:02;11.93;;;4.30;;
6356;SDS011;3211;53.452;-2.264;2023-05-07T07:26:44;5.73;;;3.77;;
6356;SDS011;3211;53.452;-2.264;2023-05-07T07:29:26;10.10;;;4.57;;
6356;SDS011;3211;53.452;-2.264;2023-05-07T07:32:09;9.23;;;4.40;;
6356;SDS011;3211;53.452;-2.264;2023-05-07T07:34:51;9.93;;;4.00;;
6356;SDS011;3211;53.452;-2.264;2023-05-07T07:37:33;5.63;;;3.47;;
6356;SDS011;3211;53.452;-2.264;2023-05-07T07:40:15;8.50;;;3.77;;
6356;SDS011;3211;53.452;-2.264;2023-05-07T07:42:57;11.83;;;3.70;;
6356;SDS011;3211;53.452;-2.264;2023-05-07T07:45:41;9.80;;;3.77;;
6356;SDS011;3211;53.452;-2.264;2023-05-07T07:48:24;9.17;;;3.37;;
6356;SDS011;3211;53.452;-2.264;2023-05-07T07:51:06;9.97;;;3.53;;
6356;SDS011;3211;53.452;-2.264;2023-05-07T07:53:48;10.10;;;5.10;;
6356;SDS011;3211;53.452;-2.264;2023-05-07T07:56:31;13.73;;;3.93;;
6356;SDS011;3211;53.452;-2.264;2023-05-07T07:59:14;10.97;;;4.00;;
6356;SDS011;3211;53.452;-2.264;2023-05-07T08:01:58;8.17;;;3.90;;
6356;SDS011;3211;53.452;-2.264;2023-05-07T08:04:42;8.17;;;3.73;;
6356;SDS011;3211;53.452;-2.264;2023-05-07T08:07:24;14.43;;;3.40;;
6356;SDS011;3211;53.452;-2.264;2023-05-07T08:10:06;10.67;;;3.47;;
6356;SDS011;3211;53.452;-2.264;2023-05-07T08:12:49;7.80;;;3.20;;
6356;SDS011;3211;53.452;-2.264;2023-05-07T08:15:31;11.47;;;3.87;;
6356;SDS011;3211;53.452;-2.264;2023-05-07T08:18:13;13.20;;;4.13;;
6356;SDS011;3211;53.452;-2.264;2023-05-07T08:20:56;8.63;;;3.90;;
6356;SDS011;3211;53.452;-2.264;2023-05-07T08:23:38;10.00;;;3.93;;
6356;SDS011;3211;53.452;-2.264;2023-05-07T08:26:20;8.07;;;4.13;;
6356;SDS011;3211;53.452;-2.264;2023-05-07T08:29:02;6.23;;;3.00;;
6356;SDS011;3211;53.452;-2.264;2023-05-07T08:31:44;8.10;;;3.73;;
6356;SDS011;3211;53.452;-2.264;2023-05-07T08:34:26;11.40;;;3.77;;
6356;SDS011;3211;53.452;-2.264;2023-05-07T08:37:09;7.20;;;3.10;;
6356;SDS011;3211;53.452;-2.264;2023-05-07T08:39:51;8.73;;;3.90;;
6356;SDS011;3211;53.452;-2.264;2023-05-07T08:42:35;7.13;;;3.20;;
6356;SDS011;3211;53.452;-2.264;2023-05-07T08:45:18;7.93;;;3.40;;
6356;SDS011;3211;53.452;-2.264;2023-05-07T08:48:02;7.07;;;3.20;;
6356;SDS011;3211;53.452;-2.264;2023-05-07T08:50:46;9.00;;;3.37;;
6356;SDS011;3211;53.452;-2.264;2023-05-07T08:53:30;9.40;;;3.73;;
6356;SDS011;3211;53.452;-2.264;2023-05-07T08:56:12;13.23;;;3.53;;
6356;SDS011;3211;53.452;-2.264;2023-05-07T08:58:55;6.57;;;3.60;;
6356;SDS011;3211;53.452;-2.264;2023-05-07T09:01:38;5.60;;;3.37;;
6356;SDS011;3211;53.452;-2.264;2023-05-07T09:04:21;9.13;;;3.23;;
6356;SDS011;3211;53.452;-2.264;2023-05-07T09:07:03;6.13;;;3.40;;
6356;SDS011;3211;53.452;-2.264;2023-05-07T09:09:47;9.83;;;3.70;;
6356;SDS011;3211;53.452;-2.264;2023-05-07T09:12:29;10.50;;;3.33;;
6356;SDS011;3211;53.452;-2.264;2023-05-07T09:15:11;9.30;;;3.60;;
6356;SDS011;3211;53.452;-2.264;2023-05-07T09:17:53;6.50;;;3.00;;
6356;SDS011;3211;53.452;-2.264;2023-05-07T09:20:36;10.53;;;4.30;;
6356;SDS011;3211;53.452;-2.264;2023-05-07T09:23:18;9.23;;;3.60;;
6356;SDS011;3211;53.452;-2.264;2023-05-07T09:26:02;6.80;;;2.87;;
6356;SDS011;3211;53.452;-2.264;2023-05-07T09:28:47;7.50;;;3.23;;
6356;SDS011;3211;53.452;-2.264;2023-05-07T09:31:29;8.97;;;2.93;;
6356;SDS011;3211;53.452;-2.264;2023-05-07T09:34:11;9.40;;;3.50;;
6356;SDS011;3211;53.452;-2.264;2023-05-07T09:36:53;10.00;;;3.60;;
6356;SDS011;3211;53.452;-2.264;2023-05-07T09:39:39;6.07;;;3.17;;
6356;SDS011;3211;53.452;-2.264;2023-05-07T09:42:26;6.30;;;2.83;;
6356;SDS011;3211;53.452;-2.264;2023-05-07T09:45:09;8.13;;;3.03;;
6356;SDS011;3211;53.452;-2.264;2023-05-07T09:47:53;7.93;;;3.23;;
6356;SDS011;3211;53.452;-2.264;2023-05-07T09:50:36;9.47;;;4.20;;
6356;SDS011;3211;53.452;-2.264;2023-05-07T09:53:27;8.50;;;3.93;;
6356;SDS011;3211;53.452;-2.264;2023-05-07T09:56:10;9.30;;;3.90;;
6356;SDS011;3211;53.452;-2.264;2023-05-07T09:58:55;7.73;;;2.97;;
6356;SDS011;3211;53.452;-2.264;2023-05-07T10:01:40;10.23;;;4.43;;
6356;SDS011;3211;53.452;-2.264;2023-05-07T10:04:23;11.00;;;3.60;;
6356;SDS011;3211;53.452;-2.264;2023-05-07T10:07:06;6.93;;;3.27;;
6356;SDS011;3211;53.452;-2.264;2023-05-07T10:09:49;9.77;;;3.50;;
6356;SDS011;3211;53.452;-2.264;2023-05-07T10:12:32;6.20;;;3.20;;
6356;SDS011;3211;53.452;-2.264;2023-05-07T10:15:20;10.77;;;3.80;;
6356;SDS011;3211;53.452;-2.264;2023-05-07T10:18:04;8.73;;;3.83;;
6356;SDS011;3211;53.452;-2.264;2023-05-07T10:20:48;4.63;;;3.10;;
6356;SDS011;3211;53.452;-2.264;2023-05-07T10:23:32;6.43;;;3.03;;
6356;SDS011;3211;53.452;-2.264;2023-05-07T10:26:15;9.33;;;3.30;;
6356;SDS011;3211;53.452;-2.264;2023-05-07T10:29:01;8.47;;;3.93;;
6356;SDS011;3211;53.452;-2.264;2023-05-07T10:31:57;8.10;;;3.83;;
6356;SDS011;3211;53.452;-2.264;2023-05-07T10:34:45;8.80;;;3.70;;
6356;SDS011;3211;53.452;-2.264;2023-05-07T10:37:31;5.60;;;3.33;;
6356;SDS011;3211;53.452;-2.264;2023-05-07T10:40:13;6.67;;;3.87;;
6356;SDS011;3211;53.452;-2.264;2023-05-07T10:42:58;7.97;;;3.27;;
6356;SDS011;3211;53.452;-2.264;2023-05-07T10:45:41;6.70;;;3.37;;
6356;SDS011;3211;53.452;-2.264;2023-05-07T10:48:24;12.10;;;4.03;;
6356;SDS011;3211;53.452;-2.264;2023-05-07T10:51:18;9.17;;;3.67;;
6356;SDS011;3211;53.452;-2.264;2023-05-07T10:54:20;6.30;;;3.70;;
6356;SDS011;3211;53.452;-2.264;2023-05-07T11:03:24;5.70;;;3.10;;
6356;SDS011;3211;53.452;-2.264;2023-05-07T11:06:09;7.37;;;3.70;;
6356;SDS011;3211;53.452;-2.264;2023-05-07T11:08:53;5.63;;;2.73;;
6356;SDS011;3211;53.452;-2.264;2023-05-07T11:11:45;10.63;;;4.03;;
6356;SDS011;3211;53.452;-2.264;2023-05-07T11:14:42;9.10;;;3.53;;
6356;SDS011;3211;53.452;-2.264;2023-05-07T11:17:25;6.80;;;4.10;;
6356;SDS011;3211;53.452;-2.264;2023-05-07T11:20:13;9.80;;;3.00;;
6356;SDS011;3211;53.452;-2.264;2023-05-07T11:22:55;6.37;;;3.03;;
6356;SDS011;3211;53.452;-2.264;2023-05-07T11:25:37;7.87;;;3.27;;
6356;SDS011;3211;53.452;-2.264;2023-05-07T11:28:19;4.00;;;2.60;;
6356;SDS011;3211;53.452;-2.264;2023-05-07T11:31:01;3.90;;;2.50;;
6356;SDS011;3211;53.452;-2.264;2023-05-07T11:33:44;6.53;;;3.20;;
6356;SDS011;3211;53.452;-2.264;2023-05-07T11:36:30;3.37;;;2.63;;
6356;SDS011;3211;53.452;-2.264;2023-05-07T11:39:26;7.97;;;3.00;;
6356;SDS011;3211;53.452;-2.264;2023-05-07T11:45:09;8.23;;;3.60;;
6356;SDS011;3211;53.452;-2.264;2023-05-07T11:47:51;5.43;;;3.00;;
6356;SDS011;3211;53.452;-2.264;2023-05-07T11:50:33;8.30;;;3.30;;
6356;SDS011;3211;53.452;-2.264;2023-05-07T11:53:16;5.93;;;3.13;;
6356;SDS011;3211;53.452;-2.264;2023-05-07T11:55:58;8.20;;;3.20;;
6356;SDS011;3211;53.452;-2.264;2023-05-07T11:58:41;9.63;;;3.67;;
6356;SDS011;3211;53.452;-2.264;2023-05-07T12:01:23;5.33;;;2.57;;
6356;SDS011;3211;53.452;-2.264;2023-05-07T12:04:05;6.47;;;3.13;;
6356;SDS011;3211;53.452;-2.264;2023-05-07T12:06:47;5.90;;;2.80;;
6356;SDS011;3211;53.452;-2.264;2023-05-07T12:09:33;5.93;;;3.20;;
6356;SDS011;3211;53.452;-2.264;2023-05-07T12:12:15;7.57;;;3.70;;
6356;SDS011;3211;53.452;-2.264;2023-05-07T12:14:57;5.73;;;3.33;;
6356;SDS011;3211;53.452;-2.264;2023-05-07T12:17:39;8.47;;;3.50;;
6356;SDS011;3211;53.452;-2.264;2023-05-07T12:20:21;4.87;;;3.30;;
6356;SDS011;3211;53.452;-2.264;2023-05-07T12:23:04;5.60;;;3.30;;
6356;SDS011;3211;53.452;-2.264;2023-05-07T12:25:48;9.50;;;3.47;;
6356;SDS011;3211;53.452;-2.264;2023-05-07T12:28:31;6.43;;;2.97;;
6356;SDS011;3211;53.452;-2.264;2023-05-07T12:31:17;6.70;;;3.40;;
6356;SDS011;3211;53.452;-2.264;2023-05-07T12:33:59;9.90;;;3.80;;
6356;SDS011;3211;53.452;-2.264;2023-05-07T12:36:41;8.77;;;3.50;;
6356;SDS011;3211;53.452;-2.264;2023-05-07T12:39:23;6.00;;;3.10;;
6356;SDS011;3211;53.452;-2.264;2023-05-07T12:42:06;8.07;;;4.00;;
6356;SDS011;3211;53.452;-2.264;2023-05-07T12:44:48;5.57;;;3.10;;
6356;SDS011;3211;53.452;-2.264;2023-05-07T12:47:30;5.87;;;3.17;;
6356;SDS011;3211;53.452;-2.264;2023-05-07T12:50:13;5.17;;;2.97;;
6356;SDS011;3211;53.452;-2.264;2023-05-07T12:52:56;4.90;;;3.30;;
6356;SDS011;3211;53.452;-2.264;2023-05-07T12:55:42;6.20;;;3.30;;
6356;SDS011;3211;53.452;-2.264;2023-05-07T12:58:27;10.60;;;3.70;;
6356;SDS011;3211;53.452;-2.264;2023-05-07T13:01:10;6.37;;;3.60;;
6356;SDS011;3211;53.452;-2.264;2023-05-07T13:03:55;7.80;;;3.50;;
6356;SDS011;3211;53.452;-2.264;2023-05-07T13:06:37;3.60;;;3.13;;
6356;SDS011;3211;53.452;-2.264;2023-05-07T13:09:19;5.60;;;3.97;;
6356;SDS011;3211;53.452;-2.264;2023-05-07T13:12:01;5.97;;;4.07;;
6356;SDS011;3211;53.452;-2.264;2023-05-07T13:14:45;5.60;;;3.77;;
6356;SDS011;3211;53.452;-2.264;2023-05-07T13:17:27;5.50;;;3.97;;
6356;SDS011;3211;53.452;-2.264;2023-05-07T13:20:11;5.97;;;4.03;;
6356;SDS011;3211;53.452;-2.264;2023-05-07T13:22:54;6.93;;;4.53;;
6356;SDS011;3211;53.452;-2.264;2023-05-07T13:25:36;5.97;;;3.80;;
6356;SDS011;3211;53.452;-2.264;2023-05-07T13:28:17;6.43;;;3.57;;
6356;SDS011;3211;53.452;-2.264;2023-05-07T13:31:01;7.57;;;4.20;;
6356;SDS011;3211;53.452;-2.264;2023-05-07T13:33:43;4.07;;;3.30;;
6356;SDS011;3211;53.452;-2.264;2023-05-07T13:36:25;8.90;;;4.00;;
6356;SDS011;3211;53.452;-2.264;2023-05-07T13:39:08;6.20;;;4.40;;
6356;SDS011;3211;53.452;-2.264;2023-05-07T13:41:50;5.90;;;3.87;;
6356;SDS011;3211;53.452;-2.264;2023-05-07T13:44:32;7.00;;;3.70;;
6356;SDS011;3211;53.452;-2.264;2023-05-07T13:47:15;5.20;;;3.87;;
6356;SDS011;3211;53.452;-2.264;2023-05-07T13:49:57;4.50;;;3.50;;
6356;SDS011;3211;53.452;-2.264;2023-05-07T13:52:40;6.53;;;3.37;;
6356;SDS011;3211;53.452;-2.264;2023-05-07T13:55:23;6.97;;;3.50;;
6356;SDS011;3211;53.452;-2.264;2023-05-07T13:58:05;6.80;;;3.97;;
6356;SDS011;3211;53.452;-2.264;2023-05-07T14:00:47;6.83;;;2.90;;
6356;SDS011;3211;53.452;-2.264;2023-05-07T14:03:31;4.27;;;3.40;;
6356;SDS011;3211;53.452;-2.264;2023-05-07T14:06:14;4.07;;;2.80;;
6356;SDS011;3211;53.452;-2.264;2023-05-07T14:08:56;4.90;;;2.90;;
6356;SDS011;3211;53.452;-2.264;2023-05-07T14:11:38;4.30;;;3.20;;
6356;SDS011;3211;53.452;-2.264;2023-05-07T14:14:20;4.07;;;3.10;;
6356;SDS011;3211;53.452;-2.264;2023-05-07T14:17:02;4.80;;;2.97;;
6356;SDS011;3211;53.452;-2.264;2023-05-07T14:19:45;5.20;;;3.33;;
6356;SDS011;3211;53.452;-2.264;2023-05-07T14:22:27;4.23;;;2.60;;
6356;SDS011;3211;53.452;-2.264;2023-05-07T14:25:09;5.60;;;3.37;;
6356;SDS011;3211;53.452;-2.264;2023-05-07T14:27:51;4.37;;;3.30;;
6356;SDS011;3211;53.452;-2.264;2023-05-07T14:30:33;3.90;;;2.73;;
6356;SDS011;3211;53.452;-2.264;2023-05-07T14:33:15;5.93;;;2.50;;
6356;SDS011;3211;53.452;-2.264;2023-05-07T14:35:58;5.20;;;2.93;;
6356;SDS011;3211;53.452;-2.264;2023-05-07T14:38:40;6.27;;;2.57;;
6356;SDS011;3211;53.452;-2.264;2023-05-07T14:41:22;3.50;;;2.87;;
6356;SDS011;3211;53.452;-2.264;2023-05-07T14:44:04;3.90;;;2.77;;
6356;SDS011;3211;53.452;-2.264;2023-05-07T14:46:46;4.70;;;2.87;;
6356;SDS011;3211;53.452;-2.264;2023-05-07T14:49:28;8.00;;;2.60;;
6356;SDS011;3211;53.452;-2.264;2023-05-07T14:52:11;3.00;;;2.33;;
6356;SDS011;3211;53.452;-2.264;2023-05-07T14:54:53;4.50;;;2.77;;
6356;SDS011;3211;53.452;-2.264;2023-05-07T14:57:35;4.57;;;2.67;;
6356;SDS011;3211;53.452;-2.264;2023-05-07T15:00:18;4.50;;;2.30;;
6356;SDS011;3211;53.452;-2.264;2023-05-07T15:03:03;6.87;;;2.60;;
6356;SDS011;3211;53.452;-2.264;2023-05-07T15:05:47;5.53;;;2.50;;
6356;SDS011;3211;53.452;-2.264;2023-05-07T15:08:32;4.43;;;2.20;;
6356;SDS011;3211;53.452;-2.264;2023-05-07T15:11:14;4.90;;;2.53;;
6356;SDS011;3211;53.452;-2.264;2023-05-07T15:13:56;5.77;;;2.37;;
6356;SDS011;3211;53.452;-2.264;2023-05-07T15:16:38;4.90;;;2.70;;
6356;SDS011;3211;53.452;-2.264;2023-05-07T15:19:20;4.20;;;2.27;;
6356;SDS011;3211;53.452;-2.264;2023-05-07T15:22:05;4.73;;;2.20;;
6356;SDS011;3211;53.452;-2.264;2023-05-07T15:24:48;3.57;;;2.10;;
6356;SDS011;3211;53.452;-2.264;2023-05-07T15:27:30;2.93;;;1.87;;
6356;SDS011;3211;53.452;-2.264;2023-05-07T15:30:13;4.80;;;2.03;;
6356;SDS011;3211;53.452;-2.264;2023-05-07T15:32:55;4.03;;;1.90;;
6356;SDS011;3211;53.452;-2.264;2023-05-07T15:35:37;4.60;;;2.43;;
6356;SDS011;3211;53.452;-2.264;2023-05-07T15:38:19;4.03;;;2.10;;
6356;SDS011;3211;53.452;-2.264;2023-05-07T15:41:02;4.13;;;2.20;;
6356;SDS011;3211;53.452;-2.264;2023-05-07T15:43:45;2.90;;;2.27;;
6356;SDS011;3211;53.452;-2.264;2023-05-07T15:46:28;3.60;;;2.40;;
6356;SDS011;3211;53.452;-2.264;2023-05-07T15:49:10;5.40;;;2.70;;
6356;SDS011;3211;53.452;-2.264;2023-05-07T15:51:52;4.60;;;2.07;;
6356;SDS011;3211;53.452;-2.264;2023-05-07T15:54:34;3.33;;;2.20;;
6356;SDS011;3211;53.452;-2.264;2023-05-07T15:57:19;3.27;;;1.93;;
6356;SDS011;3211;53.452;-2.264;2023-05-07T16:00:01;4.43;;;2.00;;
6356;SDS011;3211;53.452;-2.264;2023-05-07T16:02:45;3.67;;;1.93;;
6356;SDS011;3211;53.452;-2.264;2023-05-07T16:05:27;4.53;;;2.20;;
6356;SDS011;3211;53.452;-2.264;2023-05-07T16:08:10;4.60;;;2.13;;
6356;SDS011;3211;53.452;-2.264;2023-05-07T16:10:52;4.70;;;2.43;;
6356;SDS011;3211;53.452;-2.264;2023-05-07T16:13:35;4.90;;;2.40;;
6356;SDS011;3211;53.452;-2.264;2023-05-07T16:16:17;2.53;;;1.80;;
6356;SDS011;3211;53.452;-2.264;2023-05-07T16:18:59;3.90;;;2.00;;
6356;SDS011;3211;53.452;-2.264;2023-05-07T16:21:41;2.60;;;1.80;;
6356;SDS011;3211;53.452;-2.264;2023-05-07T16:24:23;3.57;;;1.93;;
6356;SDS011;3211;53.452;-2.264;2023-05-07T16:27:05;3.30;;;1.80;;
6356;SDS011;3211;53.452;-2.264;2023-05-07T16:29:49;5.83;;;1.83;;
6356;SDS011;3211;53.452;-2.264;2023-05-07T16:32:30;2.30;;;1.90;;